Time;durP1;ratioP1;P1;durP2;ratioP2;P2;SDS_P1;SDS_P2;PMS_P1;PMS_P2;Temp;Humidity;BMP_temperature;BMP_pressure;BME280_temperature;BME280_humidity;BME280_pressure;Samples;Min_cycle;Max_cycle;Signal;HPM_P1;HPM_P2
2022/05/05 00:01:00;;;;;;;7.90;6.70;;;;;;;12.55;59.22;101115.94;5075939;28;20690;-80
2022/05/05 00:03:27;;;;;;;13.07;6.70;;;;;;;12.49;59.66;101116.34;5074779;28;20205;-79
2022/05/05 00:05:54;;;;;;;9.83;7.07;;;;;;;12.43;59.60;101122.06;5074860;28;20227;-81
2022/05/05 00:08:21;;;;;;;12.47;6.73;;;;;;;12.36;59.76;101121.59;5075868;28;20211;-81
2022/05/05 00:16:17;;;;;;;8.90;6.60;;;;;;;12.12;60.40;101123.16;5075591;28;20247;-81
2022/05/05 00:18:43;;;;;;;10.27;6.03;;;;;;;12.08;60.57;101137.63;5075910;28;20207;-81
2022/05/05 00:21:12;;;;;;;8.63;6.60;;;;;;;12.03;60.96;101129.03;5075155;28;20211;-81
2022/05/05 00:23:38;;;;;;;10.07;7.10;;;;;;;11.99;60.96;101128.41;5074672;28;20210;-80
2022/05/05 00:26:05;;;;;;;9.57;6.53;;;;;;;11.94;61.06;101124.28;5074171;28;20201;-80
2022/05/05 00:28:31;;;;;;;13.43;6.77;;;;;;;11.88;61.02;101129.97;5075240;28;20303;-81
2022/05/05 00:30:58;;;;;;;7.67;5.83;;;;;;;11.82;60.91;101144.59;5078451;28;20212;-83
2022/05/05 00:33:26;;;;;;;11.10;5.80;;;;;;;11.73;61.02;101137.94;5080699;28;20223;-82
2022/05/05 00:35:53;;;;;;;8.57;5.93;;;;;;;11.67;61.35;101143.63;5073852;28;20274;-80
2022/05/05 00:38:19;;;;;;;7.67;5.00;;;;;;;11.60;61.37;101147.63;5074419;28;20210;-80
2022/05/05 00:40:46;;;;;;;8.07;5.63;;;;;;;11.55;61.73;101149.72;5073866;28;20557;-80
2022/05/05 00:43:12;;;;;;;8.33;5.17;;;;;;;11.49;61.42;101155.41;5073835;28;20675;-81
2022/05/05 00:45:39;;;;;;;9.20;5.43;;;;;;;11.43;61.55;101150.44;5074306;28;20256;-81
2022/05/05 00:48:06;;;;;;;10.97;5.30;;;;;;;11.35;61.39;101152.69;5073937;28;20197;-81
2022/05/05 00:50:36;;;;;;;7.73;4.97;;;;;;;11.27;61.46;101154.97;5074717;28;20211;-82
2022/05/05 00:53:04;;;;;;;7.47;4.50;;;;;;;11.17;61.12;101161.75;5078679;28;20236;-81
2022/05/05 00:55:33;;;;;;;9.07;4.63;;;;;;;11.07;61.64;101158.78;5074850;28;20229;-82
2022/05/05 00:58:00;;;;;;;7.87;5.10;;;;;;;11.00;61.91;101160.94;5074039;28;20225;-82
2022/05/05 01:00:27;;;;;;;9.10;5.07;;;;;;;10.92;61.81;101157.84;5074424;28;20208;-81
2022/05/05 01:02:55;;;;;;;6.27;4.57;;;;;;;10.86;62.08;101168.00;5063979;28;20207;-82
2022/05/05 01:05:22;;;;;;;8.70;5.30;;;;;;;10.79;62.04;101163.00;5054731;28;20222;-81
2022/05/05 01:07:49;;;;;;;6.73;4.73;;;;;;;10.74;62.49;101164.22;5054468;28;20209;-81
2022/05/05 01:10:16;;;;;;;6.83;4.70;;;;;;;10.67;62.60;101166.34;5071511;28;20215;-81
2022/05/05 01:12:44;;;;;;;8.90;5.50;;;;;;;10.63;62.52;101174.59;5074553;28;20208;-81
2022/05/05 01:15:11;;;;;;;7.00;5.03;;;;;;;10.57;62.79;101172.28;5074510;28;20225;-81
2022/05/05 01:17:37;;;;;;;8.50;5.33;;;;;;;10.52;63.03;101171.66;5074081;28;20320;-81
2022/05/05 01:20:11;;;;;;;8.97;5.60;;;;;;;10.46;63.00;101169.31;5074123;28;20215;-81
2022/05/05 01:22:39;;;;;;;7.13;4.93;;;;;;;10.38;63.37;101170.63;5071398;28;20209;-81
2022/05/05 01:30:35;;;;;;;8.47;5.30;;;;;;;10.17;63.12;101176.19;5074328;28;20184;-81
2022/05/05 01:33:07;;;;;;;7.13;5.03;;;;;;;10.08;63.59;101170.41;5074027;28;20204;-81
2022/05/05 01:35:34;;;;;;;11.70;5.40;;;;;;;10.01;63.67;101173.50;5079585;28;20805;-81
2022/05/05 01:38:02;;;;;;;10.47;5.30;;;;;;;9.95;63.72;101180.00;5056310;28;20725;-82
2022/05/05 01:40:29;;;;;;;10.43;5.73;;;;;;;9.91;64.68;101180.22;5054747;28;20583;-81
2022/05/05 01:42:56;;;;;;;9.23;5.93;;;;;;;9.87;64.49;101183.97;5064913;28;20229;-82
2022/05/05 01:45:22;;;;;;;13.00;5.70;;;;;;;9.82;64.42;101186.91;5074724;28;20706;-82
2022/05/05 01:47:49;;;;;;;8.93;5.27;;;;;;;9.78;64.71;101184.47;5075041;28;20196;-81
2022/05/05 01:50:15;;;;;;;8.00;5.47;;;;;;;9.73;64.69;101193.53;5075370;28;20656;-83
2022/05/05 01:52:42;;;;;;;7.67;5.37;;;;;;;9.69;64.91;101186.63;5073322;28;20224;-80
2022/05/05 01:55:10;;;;;;;7.37;5.23;;;;;;;9.66;65.69;101192.16;5072868;28;20237;-80
2022/05/05 01:57:36;;;;;;;8.60;5.43;;;;;;;9.61;65.06;101196.81;5072901;28;20233;-80
2022/05/05 02:00:04;;;;;;;9.67;5.27;;;;;;;9.57;65.59;101207.69;5072997;28;20201;-80
2022/05/05 02:02:30;;;;;;;7.57;5.50;;;;;;;9.52;65.26;101215.88;5088399;28;20196;-81
2022/05/05 02:04:57;;;;;;;12.90;6.20;;;;;;;9.47;65.31;101214.41;5083336;28;20228;-80
2022/05/05 02:07:24;;;;;;;8.20;5.57;;;;;;;9.42;65.64;101217.28;5073370;28;20205;-81
2022/05/05 02:09:50;;;;;;;8.57;5.60;;;;;;;9.37;65.55;101219.31;5073339;28;20224;-81
2022/05/05 02:12:18;;;;;;;7.27;5.37;;;;;;;9.33;66.09;101217.72;5056452;28;20198;-80
2022/05/05 02:14:45;;;;;;;7.70;5.60;;;;;;;9.28;65.99;101217.97;5074230;28;20217;-81
2022/05/05 02:17:12;;;;;;;9.53;5.30;;;;;;;9.24;65.95;101219.06;5076138;28;20252;-82
2022/05/05 02:19:39;;;;;;;9.20;5.20;;;;;;;9.21;65.97;101221.00;5075918;28;20204;-81
2022/05/05 02:22:06;;;;;;;8.03;5.23;;;;;;;9.16;66.45;101234.50;5075460;28;20664;-81
2022/05/05 02:24:33;;;;;;;12.07;5.77;;;;;;;9.12;66.22;101226.78;5075805;28;20829;-82
2022/05/05 02:26:59;;;;;;;7.70;5.40;;;;;;;9.11;66.98;101230.38;5075472;28;20283;-80
2022/05/05 02:29:27;;;;;;;9.10;6.23;;;;;;;9.07;66.45;101227.00;5075779;28;20205;-81
2022/05/05 02:31:54;;;;;;;5.97;5.33;;;;;;;9.04;66.95;101230.66;5074748;28;20224;-83
2022/05/05 02:34:20;;;;;;;8.97;5.70;;;;;;;9.04;67.21;101230.66;5076056;28;20267;-82
2022/05/05 02:39:31;;;;;;;8.70;5.30;;;;;;;8.98;66.39;101235.38;5076615;28;20238;-81
2022/05/05 02:41:58;;;;;;;8.67;5.73;;;;;;;8.92;67.03;101233.91;5073790;28;20200;-80
2022/05/05 02:44:26;;;;;;;7.93;5.57;;;;;;;8.90;67.76;101238.41;5056108;28;20233;-80
2022/05/05 02:46:54;;;;;;;9.33;5.00;;;;;;;8.87;66.87;101237.69;5056873;28;20302;-82
2022/05/05 02:49:20;;;;;;;6.07;4.93;;;;;;;8.85;67.14;101232.44;5056703;28;20205;-82
2022/05/05 02:51:47;;;;;;;8.20;5.53;;;;;;;8.80;67.09;101237.09;5056436;28;20660;-83
2022/05/05 02:56:57;;;;;;;7.40;5.13;;;;;;;8.71;67.67;101234.91;5064923;28;20325;-83
2022/05/05 02:59:24;;;;;;;7.03;5.70;;;;;;;8.72;67.66;101228.66;5075038;28;20691;-81
2022/05/05 03:01:50;;;;;;;10.53;5.63;;;;;;;8.70;68.38;101236.69;5075246;28;20197;-82
2022/05/05 03:04:18;;;;;;;9.67;6.17;;;;;;;8.71;67.89;101232.25;5075167;28;20727;-83
2022/05/05 03:06:44;;;;;;;8.10;6.03;;;;;;;8.68;67.69;101238.53;5074252;28;20217;-82
2022/05/05 03:09:11;;;;;;;9.37;5.93;;;;;;;8.65;68.02;101235.16;5074295;28;20209;-82
2022/05/05 03:11:37;;;;;;;6.60;5.73;;;;;;;8.62;68.10;101236.16;5074175;28;20204;-83
2022/05/05 03:14:04;;;;;;;9.20;5.60;;;;;;;8.62;68.29;101230.84;5075343;28;20234;-82
2022/05/05 03:16:30;;;;;;;7.53;6.10;;;;;;;8.60;68.17;101235.38;5075056;28;20211;-83
2022/05/05 03:18:57;;;;;;;7.47;5.80;;;;;;;8.58;68.14;101231.09;5074453;28;20228;-83
2022/05/05 03:21:25;;;;;;;7.63;6.23;;;;;;;8.54;67.95;101233.00;5081957;28;20196;-82
2022/05/05 03:23:51;;;;;;;10.10;6.63;;;;;;;8.49;67.87;101229.69;5094555;28;20212;-83
2022/05/05 03:26:18;;;;;;;8.97;5.23;;;;;;;8.43;67.81;101229.09;5073208;28;20209;-82
2022/05/05 03:28:44;;;;;;;8.23;6.13;;;;;;;8.33;67.35;101232.19;5068972;28;20201;-82
2022/05/05 03:31:11;;;;;;;9.20;5.67;;;;;;;8.23;67.87;101235.28;5074674;28;20213;-81
2022/05/05 03:33:37;;;;;;;10.23;6.07;;;;;;;8.16;67.66;101237.34;5070943;28;20518;-82
2022/05/05 03:36:04;;;;;;;9.37;6.50;;;;;;;8.10;68.41;101240.25;5067537;28;20727;-82
2022/05/05 03:38:32;;;;;;;6.30;5.60;;;;;;;8.07;69.04;101229.78;5068056;28;20217;-82
2022/05/05 03:40:59;;;;;;;8.13;5.63;;;;;;;8.05;68.95;101234.31;5061713;28;20217;-81
2022/05/05 03:43:25;;;;;;;7.73;5.73;;;;;;;8.02;68.60;101237.97;5071134;28;20205;-83
2022/05/05 03:45:52;;;;;;;8.33;5.87;;;;;;;7.99;69.49;101232.78;5063591;28;20727;-81
2022/05/05 03:48:18;;;;;;;7.73;5.70;;;;;;;7.94;69.16;101242.72;5060512;28;20204;-82
2022/05/05 03:50:45;;;;;;;7.60;5.50;;;;;;;7.91;68.80;101236.69;5059141;28;20202;-82
2022/05/05 03:53:12;;;;;;;9.80;6.30;;;;;;;7.84;68.73;101244.06;5063718;28;20202;-81
2022/05/05 03:55:39;;;;;;;10.27;5.67;;;;;;;7.83;69.09;101241.47;5064137;28;20260;-82
2022/05/05 03:58:06;;;;;;;12.13;5.97;;;;;;;7.81;68.64;101243.31;5058105;28;20225;-81
2022/05/05 04:00:33;;;;;;;10.73;6.13;;;;;;;7.77;68.65;101239.06;5064635;28;20201;-82
2022/05/05 04:05:44;;;;;;;9.20;5.83;;;;;;;7.65;68.51;101243.97;5068483;28;20236;-83
2022/05/05 04:08:10;;;;;;;8.53;6.57;;;;;;;7.62;69.15;101246.75;5056577;28;20223;-81
2022/05/05 04:10:37;;;;;;;11.80;6.77;;;;;;;7.59;69.26;101252.16;5064761;28;20201;-81
2022/05/05 04:13:05;;;;;;;12.23;6.50;;;;;;;7.57;69.46;101246.06;5058819;28;20212;-81
2022/05/05 04:15:33;;;;;;;9.60;5.70;;;;;;;7.57;69.97;101243.41;5065518;28;20247;-82
2022/05/05 04:18:00;;;;;;;7.30;6.43;;;;;;;7.54;70.23;101245.31;5068382;28;20572;-81
2022/05/05 04:20:27;;;;;;;8.67;6.23;;;;;;;7.50;69.08;101249.03;5070258;28;20588;-83
2022/05/05 04:22:54;;;;;;;13.00;7.10;;;;;;;7.44;69.45;101254.59;5064450;28;20777;-82
2022/05/05 04:25:20;;;;;;;8.97;7.03;;;;;;;7.41;69.95;101255.56;5061658;28;20775;-81
2022/05/05 04:27:49;;;;;;;10.60;6.87;;;;;;;7.37;69.64;101261.91;5071319;28;20790;-82
2022/05/05 04:30:21;;;;;;;10.03;6.73;;;;;;;7.34;69.88;101262.06;5061353;28;20197;-83
2022/05/05 04:32:48;;;;;;;9.50;6.90;;;;;;;7.34;70.74;101263.84;5066242;28;20326;-81
2022/05/05 04:35:17;;;;;;;8.30;7.00;;;;;;;7.35;70.86;101265.53;5061131;28;20233;-82
2022/05/05 04:37:43;;;;;;;10.17;6.77;;;;;;;7.38;71.12;101268.94;5056779;28;20232;-82
2022/05/05 04:40:11;;;;;;;10.20;7.00;;;;;;;7.40;71.54;101259.13;5057064;28;20213;-82
2022/05/05 04:42:38;;;;;;;11.03;6.77;;;;;;;7.45;71.84;101264.25;5072070;28;20230;-82
2022/05/05 04:45:05;;;;;;;7.80;7.00;;;;;;;7.47;71.41;101262.41;5069446;28;20651;-82
2022/05/05 04:47:34;;;;;;;8.93;6.53;;;;;;;7.48;71.76;101258.84;5064844;28;20197;-82
2022/05/05 04:50:01;;;;;;;12.47;7.30;;;;;;;7.47;71.98;101265.94;5072776;28;20686;-83
2022/05/05 04:52:27;;;;;;;15.37;8.27;;;;;;;7.48;71.50;101270.31;5070710;28;20691;-82
2022/05/05 04:54:54;;;;;;;12.43;8.40;;;;;;;7.46;71.89;101266.84;5072061;28;20270;-81
2022/05/05 04:57:21;;;;;;;8.83;7.33;;;;;;;7.44;71.34;101274.00;5072301;28;20659;-81
2022/05/05 04:59:47;;;;;;;9.40;6.70;;;;;;;7.43;71.84;101274.91;5072463;28;20287;-81
2022/05/05 05:02:13;;;;;;;9.33;7.60;;;;;;;7.43;72.31;101271.41;5072660;28;20204;-82
2022/05/05 05:04:41;;;;;;;11.33;7.70;;;;;;;7.42;72.24;101267.88;5072585;28;20220;-81
2022/05/05 05:07:08;;;;;;;9.07;8.00;;;;;;;7.45;72.61;101273.06;5072290;28;20208;-82
2022/05/05 05:09:35;;;;;;;11.17;7.77;;;;;;;7.48;72.74;101267.66;5071936;28;20200;-81
2022/05/05 05:12:02;;;;;;;11.57;9.00;;;;;;;7.56;72.92;101273.50;5074959;28;20598;-82
2022/05/05 05:14:28;;;;;;;13.57;8.33;;;;;;;7.62;72.69;101278.56;5072130;28;20597;-81
2022/05/05 05:16:55;;;;;;;12.90;7.90;;;;;;;7.70;73.55;101275.59;5069351;28;20321;-82
2022/05/05 05:19:21;;;;;;;11.23;7.97;;;;;;;7.78;72.66;101280.56;5067729;28;20228;-82
2022/05/05 05:21:49;;;;;;;9.90;7.60;;;;;;;7.88;72.45;101288.06;5061367;28;20276;-83
2022/05/05 05:24:16;;;;;;;10.83;7.67;;;;;;;7.97;72.75;101289.47;5068584;28;20312;-82
2022/05/05 05:26:42;;;;;;;9.93;7.70;;;;;;;8.06;73.07;101280.28;5062583;28;20209;-82
2022/05/05 05:29:09;;;;;;;11.37;8.17;;;;;;;8.14;72.53;101291.41;5068482;28;20201;-82
2022/05/05 05:31:35;;;;;;;9.83;7.50;;;;;;;8.22;71.68;101291.94;5061210;28;20197;-83
2022/05/05 05:34:02;;;;;;;11.10;7.13;;;;;;;8.30;71.52;101284.50;5062634;28;20224;-83
2022/05/05 05:36:28;;;;;;;9.80;7.17;;;;;;;8.38;71.29;101292.16;5064935;28;20220;-82
2022/05/05 05:38:56;;;;;;;10.73;7.27;;;;;;;8.43;70.93;101288.34;5066806;28;20235;-83
2022/05/05 05:41:23;;;;;;;11.83;7.03;;;;;;;8.52;71.09;101287.09;5070573;28;20216;-82
2022/05/05 05:43:49;;;;;;;12.13;6.70;;;;;;;8.62;70.50;101293.72;5066175;28;20205;-82
2022/05/05 05:46:16;;;;;;;10.47;7.43;;;;;;;8.74;69.86;101292.31;5065019;28;20197;-81
2022/05/05 05:48:42;;;;;;;10.23;7.07;;;;;;;8.84;69.69;101297.13;5075524;28;20215;-83
2022/05/05 05:51:09;;;;;;;9.20;6.83;;;;;;;8.97;69.85;101303.59;5067444;28;20282;-83
2022/05/05 05:53:35;;;;;;;11.67;6.90;;;;;;;9.10;68.88;101303.03;5070336;28;20201;-83
2022/05/05 05:56:04;;;;;;;12.00;6.97;;;;;;;9.22;68.67;101298.00;5079838;28;20315;-82
2022/05/05 05:58:30;;;;;;;8.90;6.70;;;;;;;9.33;67.92;101308.97;5075431;28;20220;-82
2022/05/05 06:00:57;;;;;;;13.53;7.27;;;;;;;9.48;67.08;101303.88;5071682;28;20212;-82
2022/05/05 06:06:08;;;;;;;8.23;6.10;;;;;;;9.75;66.28;101315.81;5062339;28;20247;-82
2022/05/05 06:08:34;;;;;;;9.57;6.13;;;;;;;9.89;65.60;101318.66;5076909;28;20209;-82
2022/05/05 06:11:01;;;;;;;9.17;6.80;;;;;;;10.03;65.18;101320.63;5076745;28;20205;-82
2022/05/05 06:13:31;;;;;;;8.57;6.40;;;;;;;10.17;64.69;101320.78;5077408;28;20200;-82
2022/05/05 06:15:58;;;;;;;10.40;7.37;;;;;;;10.33;64.27;101319.09;5077800;28;20577;-82
2022/05/05 06:18:24;;;;;;;6.93;6.10;;;;;;;10.49;64.57;101320.97;5076807;28;20233;-82
2022/05/05 06:20:53;;;;;;;8.73;7.33;;;;;;;10.66;64.17;101323.59;5077116;28;20227;-84
2022/05/05 06:23:19;;;;;;;10.30;8.23;;;;;;;10.76;63.22;101331.00;5076148;28;20677;-84
2022/05/05 06:25:46;;;;;;;12.80;8.83;;;;;;;10.86;62.62;101326.06;5075408;28;20699;-82
2022/05/05 06:28:12;;;;;;;10.47;6.93;;;;;;;10.99;62.28;101326.25;5075177;28;20211;-82
2022/05/05 06:30:40;;;;;;;11.53;7.70;;;;;;;11.12;62.11;101328.16;5075893;28;20699;-84
2022/05/05 06:33:06;;;;;;;8.60;7.23;;;;;;;11.29;62.01;101329.03;5075026;28;20201;-83
2022/05/05 06:35:33;;;;;;;9.30;6.20;;;;;;;11.47;61.83;101328.00;5077126;28;20608;-83
2022/05/05 06:37:59;;;;;;;11.60;7.03;;;;;;;11.65;61.61;101334.97;5075720;28;20226;-82
2022/05/05 06:40:26;;;;;;;10.23;6.83;;;;;;;11.81;61.23;101332.34;5075605;28;20202;-82
2022/05/05 06:42:53;;;;;;;9.63;7.03;;;;;;;11.96;60.62;101338.59;5075128;28;20210;-82
2022/05/05 06:45:19;;;;;;;9.27;6.57;;;;;;;12.06;59.92;101342.44;5071725;28;20576;-82
2022/05/05 06:47:47;;;;;;;11.90;7.93;;;;;;;12.15;59.74;101344.59;5063537;28;20283;-83
2022/05/05 06:50:16;;;;;;;11.30;6.87;;;;;;;12.24;59.52;101344.03;5076008;28;20207;-82
2022/05/05 06:52:42;;;;;;;10.10;6.43;;;;;;;12.35;59.65;101343.41;5068021;28;20214;-82
2022/05/05 06:55:09;;;;;;;8.40;6.10;;;;;;;12.47;59.30;101354.22;5067138;28;20233;-82
2022/05/05 06:57:37;;;;;;;9.50;6.70;;;;;;;12.58;58.09;101347.34;5063471;28;20214;-82
2022/05/05 07:00:04;;;;;;;10.57;5.43;;;;;;;12.67;58.19;101349.47;5057797;28;20225;-82
2022/05/05 07:02:30;;;;;;;16.43;6.53;;;;;;;12.78;58.06;101347.00;5055765;28;20206;-83
2022/05/05 07:07:42;;;;;;;9.30;5.77;;;;;;;13.04;57.19;101332.03;5055319;28;20220;-83
2022/05/05 07:12:53;;;;;;;7.03;4.80;;;;;;;13.26;55.91;101347.59;5055732;28;20193;-83
2022/05/05 07:15:20;;;;;;;10.43;5.40;;;;;;;13.38;55.28;101344.16;5055543;28;20235;-84
2022/05/05 07:17:48;;;;;;;12.70;5.23;;;;;;;13.52;55.53;101344.13;5065964;28;20197;-82
2022/05/05 07:20:16;;;;;;;10.60;5.10;;;;;;;13.66;55.07;101344.06;5065654;28;20215;-83
2022/05/05 07:22:43;;;;;;;9.83;5.40;;;;;;;13.83;54.30;101345.66;5057680;28;20198;-83
2022/05/05 07:25:10;;;;;;;8.37;5.50;;;;;;;13.96;53.93;101345.72;5055643;28;20229;-84
2022/05/05 07:27:38;;;;;;;9.90;5.20;;;;;;;14.12;53.04;101355.31;5070534;28;20278;-83
2022/05/05 07:30:06;;;;;;;11.30;4.33;;;;;;;14.25;52.60;101350.81;5065846;28;20625;-82
2022/05/05 07:32:33;;;;;;;8.40;4.60;;;;;;;14.38;51.52;101356.22;5056710;28;20212;-84
2022/05/05 07:34:59;;;;;;;9.07;4.93;;;;;;;14.50;50.76;101359.91;5055825;28;20256;-83
2022/05/05 07:37:27;;;;;;;10.53;5.37;;;;;;;14.62;50.00;101356.38;5075912;28;20224;-82
2022/05/05 07:39:54;;;;;;;10.13;5.57;;;;;;;14.75;49.89;101359.06;5075773;28;20222;-82
2022/05/05 07:42:20;;;;;;;7.90;4.70;;;;;;;14.87;48.92;101350.16;5075056;28;20691;-82
2022/05/05 07:44:47;;;;;;;6.90;4.63;;;;;;;14.99;48.03;101364.56;5074543;28;20243;-84
2022/05/05 07:47:13;;;;;;;7.43;5.23;;;;;;;15.09;48.08;101358.41;5074892;28;20651;-82
2022/05/05 07:49:40;;;;;;;7.63;5.10;;;;;;;15.18;47.34;101368.50;5076163;28;20203;-83
2022/05/05 07:52:07;;;;;;;10.43;5.50;;;;;;;15.28;47.85;101353.44;5067129;28;20201;-83
2022/05/05 07:54:42;;;;;;;11.50;4.97;;;;;;;15.44;47.77;101357.72;5075867;28;20231;-82
2022/05/05 07:57:11;;;;;;;6.10;4.33;;;;;;;15.53;46.72;101365.97;5073497;28;20684;-82
2022/05/05 07:59:39;;;;;;;6.17;4.00;;;;;;;15.61;45.84;101362.75;5073158;28;20220;-84
2022/05/05 08:02:09;;;;;;;7.63;4.53;;;;;;;15.68;45.44;101372.06;5073732;28;20702;-83
2022/05/05 08:04:35;;;;;;;7.27;4.47;;;;;;;15.75;45.33;101370.66;5073402;28;20224;-83
2022/05/05 08:07:02;;;;;;;9.50;4.47;;;;;;;15.83;44.94;101373.63;5073556;28;20208;-84
2022/05/05 08:09:28;;;;;;;6.87;4.73;;;;;;;15.92;44.86;101378.34;5062298;28;20209;-83
2022/05/05 08:11:56;;;;;;;8.10;4.73;;;;;;;16.01;44.13;101376.78;5069898;28;20213;-83
2022/05/05 08:14:23;;;;;;;9.50;5.40;;;;;;;16.09;44.04;101373.53;5068727;28;20232;-84
2022/05/05 08:16:49;;;;;;;7.70;5.33;;;;;;;16.15;44.04;101378.44;5070864;28;20217;-83
2022/05/05 08:19:16;;;;;;;10.57;4.53;;;;;;;16.23;44.10;101376.91;5065805;28;20249;-83
2022/05/05 08:21:42;;;;;;;7.40;4.97;;;;;;;16.33;43.83;101380.59;5072612;28;20222;-83
2022/05/05 08:29:38;;;;;;;9.20;6.13;;;;;;;16.72;43.72;101380.38;5074605;28;20204;-83
2022/05/05 08:32:05;;;;;;;7.10;5.33;;;;;;;16.81;43.10;101380.53;5074818;28;20208;-83
2022/05/05 08:34:32;;;;;;;8.23;5.27;;;;;;;16.87;43.07;101379.19;5068798;28;20213;-83
2022/05/05 08:36:58;;;;;;;7.20;5.30;;;;;;;16.95;43.06;101388.38;5065545;28;20208;-83
2022/05/05 08:39:25;;;;;;;8.10;5.60;;;;;;;17.04;42.70;101391.31;5069695;28;20226;-83
2022/05/05 08:41:53;;;;;;;11.97;5.60;;;;;;;17.11;42.52;101377.25;5073616;28;20569;-82
2022/05/05 08:44:20;;;;;;;7.70;5.53;;;;;;;17.21;42.65;101383.63;5066233;28;20382;-84
2022/05/05 08:46:50;;;;;;;9.40;5.93;;;;;;;17.27;42.25;101385.84;5074164;28;20598;-83
2022/05/05 08:49:22;;;;;;;7.97;5.80;;;;;;;17.32;42.33;101386.31;5053337;28;20302;-83
2022/05/05 08:51:53;;;;;;;12.77;5.50;;;;;;;17.37;42.04;101387.81;5060667;28;20198;-83
2022/05/05 08:54:22;;;;;;;12.10;5.83;;;;;;;17.43;41.76;101387.28;5066286;28;20244;-83
2022/05/05 08:56:50;;;;;;;7.57;5.97;;;;;;;17.49;41.69;101381.41;5065951;28;20225;-83
2022/05/05 08:59:17;;;;;;;7.40;5.93;;;;;;;17.52;41.34;101387.41;5059030;28;20882;-82
2022/05/05 09:01:44;;;;;;;6.13;5.20;;;;;;;17.51;41.49;101390.25;5057648;28;20566;-83
2022/05/05 09:04:12;;;;;;;8.37;5.30;;;;;;;17.54;41.14;101396.25;5064527;28;20227;-83
2022/05/05 09:06:44;;;;;;;8.23;4.90;;;;;;;17.61;41.00;101388.50;5055680;28;20206;-82
2022/05/05 09:09:32;;;;;;;11.03;4.70;;;;;;;17.70;40.50;101393.19;5058775;28;20202;-82
2022/05/05 09:12:06;;;;;;;5.43;4.67;;;;;;;17.76;40.34;101398.06;5061385;28;20207;-82
2022/05/05 09:14:36;;;;;;;6.33;5.17;;;;;;;17.83;40.44;101398.41;5065094;28;20226;-83
2022/05/05 09:17:04;;;;;;;7.03;5.17;;;;;;;17.89;40.29;101398.78;5067054;28;20296;-83
2022/05/05 09:19:37;;;;;;;6.57;4.40;;;;;;;17.95;40.10;101400.97;5064238;28;20225;-83
2022/05/05 09:22:04;;;;;;;7.67;5.07;;;;;;;17.99;39.60;101406.97;5059322;28;20207;-83
2022/05/05 09:24:40;;;;;;;5.47;4.23;;;;;;;18.06;39.59;101399.22;5064654;28;20236;-82
2022/05/05 09:27:18;;;;;;;6.47;3.97;;;;;;;18.15;39.42;101393.06;5072578;28;20246;-82
2022/05/05 09:30:00;;;;;;;9.47;4.17;;;;;;;18.21;38.71;101390.72;5073729;28;20292;-82
2022/05/05 09:32:28;;;;;;;5.47;3.80;;;;;;;18.25;38.37;101392.19;5060653;28;20198;-82
2022/05/05 09:34:58;;;;;;;9.47;4.83;;;;;;;18.32;38.14;101393.34;5065624;28;20234;-82
2022/05/05 09:37:24;;;;;;;9.20;4.77;;;;;;;18.37;37.94;101396.53;5066290;28;20206;-82
2022/05/05 09:39:55;;;;;;;7.73;4.80;;;;;;;18.41;37.34;101398.97;5074059;28;20239;-83
2022/05/05 09:42:36;;;;;;;7.10;3.80;;;;;;;18.44;36.81;101407.66;5074632;28;20200;-82
2022/05/05 09:45:19;;;;;;;8.97;4.60;;;;;;;18.52;37.10;101404.31;5070191;28;20272;-83
2022/05/05 09:47:50;;;;;;;5.87;3.60;;;;;;;18.56;35.32;101401.22;5069343;28;20231;-82
2022/05/05 09:50:20;;;;;;;6.97;4.27;;;;;;;18.60;35.14;101408.13;5071267;28;20246;-83
2022/05/05 09:58:21;;;;;;;6.77;4.47;;;;;;;18.68;34.39;101410.16;5069313;28;20295;-83
2022/05/05 10:00:55;;;;;;;6.90;4.50;;;;;;;18.67;34.06;101411.97;5074919;28;20231;-83
2022/05/05 10:06:18;;;;;;;6.43;4.40;;;;;;;18.80;35.05;101408.25;5065939;28;20803;-83
2022/05/05 10:08:46;;;;;;;6.43;4.70;;;;;;;18.87;34.85;101406.72;5057507;28;20226;-84
2022/05/05 10:11:15;;;;;;;7.10;4.43;;;;;;;18.98;34.39;101414.78;5061446;28;20199;-83
2022/05/05 10:13:42;;;;;;;5.97;3.73;;;;;;;19.07;34.41;101408.56;5062122;28;20235;-83
2022/05/05 10:16:09;;;;;;;5.80;3.57;;;;;;;19.15;33.81;101410.59;5060271;28;20245;-83
2022/05/05 10:18:38;;;;;;;4.90;3.10;;;;;;;19.21;32.79;101407.34;5072800;28;20650;-82
2022/05/05 10:21:07;;;;;;;4.77;3.10;;;;;;;19.21;32.64;101405.50;5076634;28;20222;-82
2022/05/05 10:23:46;;;;;;;6.37;3.33;;;;;;;19.30;32.71;101402.00;5073763;28;20255;-83
2022/05/05 10:26:13;;;;;;;4.67;3.67;;;;;;;19.42;31.69;101403.63;5069740;28;20286;-84
2022/05/05 10:28:41;;;;;;;4.43;3.30;;;;;;;19.50;31.60;101407.53;5071705;28;20536;-83
2022/05/05 10:31:13;;;;;;;7.03;4.60;;;;;;;19.57;31.59;101403.28;5066026;28;20224;-83
2022/05/05 10:33:58;;;;;;;4.90;3.77;;;;;;;19.66;31.89;101397.06;5067643;28;20201;-83
2022/05/05 10:36:25;;;;;;;5.30;3.23;;;;;;;19.75;31.34;101401.63;5069513;28;20267;-82
2022/05/05 10:38:56;;;;;;;7.10;3.40;;;;;;;19.75;30.46;101402.47;5073292;28;20300;-82
2022/05/05 10:41:39;;;;;;;4.40;3.77;;;;;;;19.79;31.26;101408.47;5072520;28;20198;-83
2022/05/05 10:44:23;;;;;;;5.50;4.70;;;;;;;19.87;31.63;101399.69;5071232;28;20220;-83
2022/05/05 10:47:02;;;;;;;4.83;3.00;;;;;;;19.93;31.34;101402.66;5073591;28;20209;-83
2022/05/05 10:49:46;;;;;;;5.13;3.47;;;;;;;19.97;31.50;101405.94;5063754;28;20301;-84
2022/05/05 10:52:32;;;;;;;6.80;4.00;;;;;;;20.00;31.80;101400.25;5069664;28;20196;-83
2022/05/05 10:55:25;;;;;;;5.33;3.90;;;;;;;20.09;32.22;101405.66;5063326;28;20226;-83
2022/05/05 10:57:52;;;;;;;5.87;4.70;;;;;;;20.14;31.83;101399.00;5076873;28;20218;-83
2022/05/05 11:00:19;;;;;;;3.50;3.20;;;;;;;20.22;31.77;101401.88;5074995;28;20255;-83
2022/05/05 11:03:15;;;;;;;5.00;3.10;;;;;;;20.29;31.69;101406.56;5063838;28;20786;-83
2022/05/05 11:05:43;;;;;;;3.73;2.70;;;;;;;20.37;31.40;101403.19;5065276;28;20254;-83
2022/05/05 11:08:32;;;;;;;5.57;3.93;;;;;;;20.41;31.65;101405.47;5064026;28;20261;-83
2022/05/05 11:13:45;;;;;;;6.97;3.83;;;;;;;20.34;31.60;101403.44;5065649;28;20273;-83
2022/05/05 11:22:06;;;;;;;4.03;2.57;;;;;;;20.48;32.29;101408.44;5061213;28;20236;-83
2022/05/05 11:24:33;;;;;;;4.13;2.85;;;;;;;20.55;31.80;101401.47;5071606;28;20626;-83
2022/05/05 11:27:00;;;;;;;2.92;2.20;;;;;;;20.65;32.00;101410.41;5075910;28;20584;-83
2022/05/05 11:29:29;;;;;;;3.40;2.53;;;;;;;20.69;31.58;101408.28;5062024;28;20285;-82
2022/05/05 11:32:00;;;;;;;4.03;2.30;;;;;;;20.73;31.57;101410.56;5065464;28;20253;-83
2022/05/05 11:34:34;;;;;;;4.37;3.30;;;;;;;20.74;31.27;101406.00;5069512;28;20244;-83
2022/05/05 11:37:01;;;;;;;4.40;3.28;;;;;;;20.75;31.63;101408.56;5081828;28;20661;-83
2022/05/05 11:39:29;;;;;;;4.22;3.08;;;;;;;20.78;32.21;101407.44;5084698;28;20225;-84
2022/05/05 11:42:05;;;;;;;4.30;3.30;;;;;;;20.80;32.40;101405.41;5074440;28;20218;-83
2022/05/05 11:44:30;;;;;;;5.97;3.50;;;;;;;20.84;32.86;101406.84;5065177;28;20221;-83
2022/05/05 11:46:58;;;;;;;3.83;2.83;;;;;;;20.90;32.73;101405.41;5072929;28;20223;-83
2022/05/05 11:49:32;;;;;;;3.93;1.90;;;;;;;20.92;32.17;101406.13;5074684;28;20223;-84
2022/05/05 11:51:59;;;;;;;3.73;1.70;;;;;;;20.88;32.14;101402.00;5074433;28;20261;-83
2022/05/05 11:54:32;;;;;;;3.23;1.80;;;;;;;20.88;31.82;101396.56;5077037;28;20250;-84
2022/05/05 11:56:59;;;;;;;2.63;1.88;;;;;;;20.92;31.82;101403.41;5074881;28;20716;-82
2022/05/05 12:02:14;;;;;;;3.35;2.40;;;;;;;21.05;32.00;101403.94;5064537;28;20705;-83
2022/05/05 12:04:42;;;;;;;4.03;2.80;;;;;;;21.06;31.75;101402.94;5070442;28;20302;-84
2022/05/05 12:07:11;;;;;;;1.77;1.60;;;;;;;21.07;32.50;101393.81;5070612;28;20207;-83
2022/05/05 12:09:38;;;;;;;2.83;1.50;;;;;;;21.09;32.41;101399.94;5061740;28;20211;-83
2022/05/05 12:12:12;;;;;;;3.55;1.45;;;;;;;21.09;32.16;101403.50;5068746;28;20583;-84
2022/05/05 12:14:45;;;;;;;2.55;1.50;;;;;;;21.12;31.52;101405.09;5068113;28;20224;-83
2022/05/05 12:17:18;;;;;;;3.67;1.35;;;;;;;21.09;30.53;101398.09;5066399;28;20216;-84
2022/05/05 12:19:48;;;;;;;2.40;1.40;;;;;;;21.03;30.54;101398.69;5061581;28;20279;-84
2022/05/05 12:22:15;;;;;;;3.80;1.45;;;;;;;21.00;30.84;101400.81;5060783;28;20236;-84
2022/05/05 12:24:46;;;;;;;4.13;1.70;;;;;;;20.99;31.21;101399.09;5058456;28;20232;-84